• Join FlightAware (Why Join?)
  • Login
  • US Flag 
08:46PM EDT


 

Airport Tracker/Info


-or-


 

Live Flight TrackerFlight Track Log ✈ CPT1940 ✈ 23-Oct-2013 ✈ KBFF - KCPR

Flight Track Log - Related Links

Times and Time Zones

All times are in EDT time to prevent confusion due to time zone crossing. See the CPT1940 flight status page for this flight to view local times or setup timezone preferences in your user account.

Time Position Orientation Groundspeed Altitude Reporting Facility
EDT Latitude Longitude Course Direction KTS MPH feet Rate Location/Type
10:33AM 41.9275 -103.6825 313° West 94 108 7,700  Level Denver Center
10:35AM 41.9489 -103.7136 313° West 99 114 8,700 900 Climbing Denver Center
10:36AM 41.9664 -103.7403 311° West 99 114 9,600 600 Climbing Denver Center
10:37AM 41.9878 -103.7733 311° West 102 117 10,000 180 Climbing Denver Center
10:38AM 42.0100 -103.8067 312° West 115 132 10,000  Level Denver Center
10:39AM 42.0356 -103.8494 309° West 126 145 10,000  Level Denver Center
10:40AM 42.0586 -103.8858 310° West 131 151 10,000  Level Denver Center
10:41AM 42.0858 -103.9281 311° West 133 153 10,000  Level Denver Center
10:42AM 42.1083 -103.9639 310° West 132 152 10,000  Level Denver Center
10:43AM 42.1350 -104.0050 311° West 131 151 10,000  Level Denver Center
10:44AM 42.1567 -104.0406 309° West 130 150 10,000  Level Denver Center
10:45AM 42.1842 -104.0822 312° West 131 151 10,000  Level Denver Center
10:46AM 42.2067 -104.1178 311° West 131 151 10,000  Level Denver Center
10:47AM 42.2333 -104.1589 311° West 130 150 10,000  Level Denver Center
10:48AM 42.2572 -104.1950 312° West 132 152 10,000  Level Denver Center
10:49AM 42.2822 -104.2361 309° West 131 151 10,000  Level Denver Center
10:50AM 42.3042 -104.2722 309° West 129 148 10,000  Level Denver Center
10:51AM 42.3269 -104.3075 311° West 130 150 10,000  Level Denver Center
10:52AM 42.3544 -104.3489 312° West 132 152 10,000  Level Denver Center
10:53AM 42.3758 -104.3850 309° West 130 150 10,000  Level Denver Center
10:54AM 42.4025 -104.4269 311° West 131 151 10,000  Level Denver Center
10:55AM 42.4258 -104.4633 311° West 132 152 10,100  Climbing Denver Center
10:56AM 42.4525 -104.5064 310° West 133 153 10,000 -60 Descending Denver Center
10:57AM 42.4756 -104.5422 311° West 133 153 10,000  Level Denver Center
10:58AM 42.5014 -104.5856 309° West 132 152 10,000  Level Denver Center
10:59AM 42.5239 -104.6228 309° West 132 152 10,000  Level Denver Center
11:00AM 42.5367 -104.6675 291° West 133 153 10,000  Level Denver Center
11:01AM 42.5547 -104.7192 295° West 134 154 10,000  Level Denver Center
11:02AM 42.5697 -104.7633 295° West 134 154 10,000  Level Denver Center
11:03AM 42.5872 -104.8142 295° West 133 153 10,100  Climbing Denver Center
11:05AM 42.6022 -104.8597 294° West 135 155 10,100  Level Denver Center
11:06AM 42.6194 -104.9117 294° West 135 155 10,100  Level Denver Center
11:07AM 42.6344 -104.9569 294° West 136 157 10,100  Level Denver Center
11:08AM 42.6525 -105.0103 295° West 138 159 10,100  Level Denver Center
11:09AM 42.6675 -105.0553 294° West 138 159 10,100  Level Denver Center
11:10AM 42.6847 -105.1081 294° West 137 158 10,100  Level Denver Center
11:11AM 42.6992 -105.1531 294° West 136 157 10,100  Level Denver Center
11:12AM 42.7147 -105.2000 294° West 139 160 10,100  Level Denver Center
11:13AM 42.7317 -105.2522 294° West 137 158 10,100  Level Denver Center
11:14AM 42.7456 -105.2967 293° West 136 157 10,100  Level Denver Center
11:15AM 42.7628 -105.3489 294° West 135 155 10,100  Level Denver Center
11:16AM 42.7789 -105.3956 295° West 139 160 10,100  Level Denver Center
11:17AM 42.7958 -105.4478 294° West 137 158 10,100 -60 Level Denver Center
11:18AM 42.8117 -105.4964 294° West 141 162 10,000  Descending Denver Center
11:19AM 42.8283 -105.5503 293° West 141 162 10,100  Climbing Denver Center
11:20AM 42.8433 -105.5964 294° West 139 160 10,100 -60 Level Denver Center
11:21AM 42.8614 -105.6533 293° West 143 165 10,000  Descending Denver Center
11:22AM 42.8753 -105.6986 293° West 140 161 10,100 -180 Climbing Denver Center
11:23AM 42.8864 -105.7575 284° West 141 162 9,700 -540 Descending Denver Center
11:24AM 42.8869 -105.8178 271° West 154 177 9,000 -720 Descending Denver Center
11:25AM 42.8886 -105.8883 272° West 163 188 8,300 -360 Descending Denver Center
11:26AM 42.8897 -105.9456 272° West 162 186 8,300 -60 Level Denver Center
11:27AM 42.8911 -105.9997 272° West 155 178 8,200 -60 Descending Denver Center
11:28AM 42.8933 -106.0614 273° West 150 173 8,200  Level Denver Center
11:29AM 42.8956 -106.1156 273° West 149 171 8,300  Climbing Denver Center
11:30AM 42.9003 -106.1772 276° West 148 170 8,300 -300 Level Denver Center
11:31AM 42.9061 -106.2333 278° West 152 175 7,800 -600 Descending Denver Center
11:32AM 42.9144 -106.3028 279° West 161 185 7,100 -480 Descending Denver Center
11:33AM 42.9233 -106.3589 282° West 161 185 6,900 -420 Descending Denver Center
11:35AM 42.9344 -106.4225 283° West 157 181 6,300 -480 Descending Denver Center
11:36AM 42.9039 -106.4472 211° Southwest 144 166 6,000 -300 Descending Denver Center
11:38AM 42.9000 -106.4500 270° West  Level FlightAware Approximate